Terminal Aerodrome Forecast
Issued by NWS Omaha/Valley, NE

Home | Current Version | Previous Version | Text Only | Print | Product List | Glossary Off
Versions: 1 2 3 4 5 6 7 8 9 10 11 12 13 14 15

000
FTUS43 KOAX 271120
TAFOFK
TAF
KOFK 271120Z 2712/2812 36005KT P6SM BKN120
     FM271500 26009KT P6SM SCT050
     FM272300 36008KT P6SM BKN150=

USA.gov is the U.S. government's official web portal to all federal, state and local government web resources and services.